createdAt,value
2018-10-17T00:06:02.481Z,11.69
2018-10-17T00:16:03.667Z,11.75
2018-10-17T00:26:02.678Z,11.79
2018-10-17T00:36:02.615Z,11.41
2018-10-17T00:46:02.603Z,11.26
2018-10-17T00:56:02.646Z,11.26
2018-10-17T01:06:02.551Z,11.18
2018-10-17T01:16:02.651Z,11.10
2018-10-17T01:26:02.684Z,11.19
2018-10-17T01:36:02.588Z,11.37
2018-10-17T01:46:02.734Z,11.99
2018-10-17T01:56:02.717Z,13.55
2018-10-17T02:06:02.561Z,15.71
2018-10-17T02:16:03.485Z,16.85
2018-10-17T02:26:02.851Z,15.94
2018-10-17T02:36:02.573Z,14.76
2018-10-17T02:46:02.632Z,15.11
2018-10-17T02:56:02.608Z,14.66
2018-10-17T03:06:02.826Z,15.03
2018-10-17T03:16:02.524Z,14.85
2018-10-17T03:26:02.591Z,13.89
2018-10-17T03:36:02.651Z,14.30
2018-10-17T03:46:02.745Z,15.04
2018-10-17T03:56:02.568Z,14.82
2018-10-17T04:06:02.584Z,13.73
2018-10-17T04:16:02.550Z,12.86
2018-10-17T04:26:02.558Z,12.54
2018-10-17T04:36:02.676Z,12.26
2018-10-17T04:46:02.581Z,12.47
2018-10-17T04:56:02.598Z,12.61
2018-10-17T05:06:03.172Z,12.53
2018-10-17T05:16:02.724Z,12.34
2018-10-17T05:26:02.551Z,12.44
2018-10-17T05:36:02.529Z,12.21
2018-10-17T05:46:02.602Z,11.94
2018-10-17T05:56:02.518Z,11.65
2018-10-17T06:06:02.623Z,11.51
2018-10-17T06:16:02.937Z,11.20
2018-10-17T06:26:02.541Z,11.08
2018-10-17T06:36:02.694Z,10.87
2018-10-17T06:46:02.649Z,10.96
2018-10-17T06:56:02.612Z,11.19
2018-10-17T07:06:02.701Z,12.23
2018-10-17T07:16:02.533Z,12.85
2018-10-17T07:26:02.532Z,13.00
2018-10-17T07:36:02.594Z,13.48
2018-10-17T07:46:03.239Z,14.36
2018-10-17T07:56:02.548Z,15.55
2018-10-17T08:06:03.632Z,16.22
2018-10-17T08:16:02.639Z,16.53
2018-10-17T08:26:02.683Z,17.26
2018-10-17T08:36:02.730Z,18.43
2018-10-17T08:46:02.635Z,20.18
2018-10-17T08:56:02.635Z,20.57
2018-10-17T09:06:02.750Z,22.23
2018-10-17T09:16:02.816Z,24.06
2018-10-17T09:26:02.945Z,23.28
2018-10-17T09:36:02.769Z,23.55
2018-10-17T09:46:04.954Z,24.62
2018-10-17T09:56:02.756Z,24.61
2018-10-17T10:06:03.480Z,24.71
2018-10-17T10:16:02.876Z,24.92
2018-10-17T10:26:02.854Z,24.79
2018-10-17T10:36:02.657Z,25.57
2018-10-17T10:46:03.359Z,25.94
2018-10-17T10:56:02.736Z,25.38
2018-10-17T11:06:02.894Z,25.08
2018-10-17T11:16:03.440Z,25.48
2018-10-17T11:26:03.414Z,24.64
2018-10-17T11:36:02.633Z,24.70
2018-10-17T11:46:02.673Z,26.11
2018-10-17T11:56:02.729Z,26.89
2018-10-17T12:06:02.653Z,27.26
2018-10-17T12:16:02.725Z,27.53
2018-10-17T12:36:09.053Z,27.68
2018-10-17T12:46:08.515Z,27.96
2018-10-17T12:56:08.628Z,27.83
2018-10-17T13:06:08.561Z,27.02
2018-10-17T13:16:08.556Z,27.46
2018-10-17T13:26:09.252Z,27.78
2018-10-17T13:36:08.609Z,28.14
2018-10-17T13:46:09.366Z,27.87
2018-10-17T13:56:09.417Z,27.90
2018-10-17T14:06:08.595Z,28.07
2018-10-17T14:16:08.665Z,27.54
2018-10-17T14:26:08.952Z,27.05
2018-10-17T14:36:09.062Z,27.04
2018-10-17T14:46:09.684Z,26.69
2018-10-17T14:56:08.538Z,25.81
2018-10-17T15:06:08.918Z,25.43
2018-10-17T15:16:08.627Z,24.89
2018-10-17T15:26:08.574Z,23.91
2018-10-17T15:36:08.649Z,22.72
2018-10-17T15:46:08.582Z,21.84
2018-10-17T15:56:08.561Z,21.08
2018-10-17T16:06:09.034Z,20.59
2018-10-17T16:16:08.764Z,20.15
2018-10-17T16:26:08.657Z,19.49
2018-10-17T16:36:08.853Z,18.77
2018-10-17T16:46:08.634Z,18.09
2018-10-17T16:56:08.799Z,17.66
2018-10-17T17:06:09.698Z,17.24
2018-10-17T17:16:08.701Z,16.86
2018-10-17T17:26:08.792Z,16.49
2018-10-17T17:36:09.539Z,16.12
2018-10-17T17:46:08.635Z,15.87
2018-10-17T17:56:08.714Z,15.60
2018-10-17T18:06:08.647Z,15.32
2018-10-17T18:16:08.925Z,15.12
2018-10-17T18:26:08.677Z,15.06
2018-10-17T18:36:10.503Z,15.05
2018-10-17T18:46:08.669Z,14.91
2018-10-17T18:56:08.689Z,14.69
2018-10-17T19:06:09.611Z,14.85
2018-10-17T19:16:09.030Z,14.98
2018-10-17T19:26:08.564Z,14.93
2018-10-17T19:36:09.404Z,14.76
2018-10-17T19:46:08.673Z,14.55
2018-10-17T19:56:08.837Z,14.45
2018-10-17T20:06:08.597Z,14.30
2018-10-17T20:16:08.610Z,14.07
2018-10-17T20:26:08.676Z,13.83
2018-10-17T20:36:08.707Z,13.64
2018-10-17T20:46:08.525Z,13.46
2018-10-17T20:56:08.713Z,13.28
2018-10-17T21:06:08.602Z,13.17
2018-10-17T21:16:08.636Z,13.04
2018-10-17T21:26:10.388Z,12.82
2018-10-17T21:36:09.551Z,12.51
2018-10-17T21:46:08.686Z,12.45
2018-10-17T21:56:08.785Z,12.51
2018-10-17T22:06:08.693Z,12.45
2018-10-17T22:16:08.703Z,12.31
2018-10-17T22:26:09.534Z,12.23
2018-10-17T22:36:08.611Z,12.16
2018-10-17T22:46:08.650Z,12.09
2018-10-17T22:56:08.711Z,11.87
2018-10-17T23:06:08.853Z,11.65
2018-10-17T23:16:09.138Z,11.65
2018-10-17T23:26:08.735Z,11.65
2018-10-17T23:36:08.595Z,11.57
2018-10-17T23:46:08.634Z,11.51
2018-10-17T23:56:08.788Z,11.29
